메인 페이지
METAR-TAF:

METAR-TAF

공항 :

Slidell Airport

Slidell, 루이지애나, 미국

위도: 30-20-35N, 경도: 089-49-19W, 고도: 9m

현재 날씨관측

예보는 47분 전, 12:53시(UTC)에 발표되었습니다.
여러 방향의 바람 3kt
온도 26°C
습도 84%
기압 1018 hPa
시정: 16.1km
맑음

METAR: KASD 261253Z AUTO VRB03KT 10SM CLR 26/23 A3005 RMK AO2 LTG DSNT W SLP175 T02560233

시각: 08:40 (13:40 UTC)

예보

예보는 2 시간 20분 전, 11:20시(UTC)에 발표되었습니다.
예보 대상 시간: 26일 12시부터 27일 12시까지 (UTC)
kt
시정: 10km
맑음
시계 내 소나기
26일 1300시부터 (UTC)
4kt
시정: 10km
고도 2500ft 상공 구름 많음, 적란운.
고도 6000ft 상공 흐림
시계 내 뇌우
일시적
26일 16시부터 26일 20시까지 (UTC)
시정: 6.4km
고도 1500ft 상공 흐림, 적란운.
뇌우, 비
26일 2100시부터 (UTC)
남서4kt
시정: 10km
고도 1500ft 상공 구름 많음, 적란운.
고도 12000ft 상공 흐림
소나기, 시계 내 뇌우
27일 0400시부터 (UTC)
여러 방향의 바람 3kt
시정: 10km
고도 2000ft 상공 구름 많음
고도 8000ft 상공 흐림
27일 1100시부터 (UTC)
여러 방향의 바람 3kt
시정: 10km
고도 2000ft 상공 구름 많음, 적란운.
시계 내 뇌우

TAF: KASD 261120Z 2612/2712 00000KT P6SM VCSH SKC FM261300 19004KT P6SM VCTS BKN025CB OVC060 TEMPO 2616/2620 4SM TSRA OVC015CB FM262100 22004KT P6SM SHRA VCTS BKN015CB OVC120 FM270400 VRB03KT P6SM BKN020 OVC080 FM271100 VRB03KT P6SM VCTS BKN020CB

4,000개 이상의 공항 관측 자료 및 예보 (METAR 및 TAF 보고).

지도상에서 검색 가능한 기상관측소가 노란 점과 빨간 점으로 표시되어 있습니다.

기상관측소 명을 보려면 표시 위로 마우스를 이동하세요.

날씨 관측과 예보를 보려면 클릭하세요.

지도 변경 : 확대하려면 엑스 표시가 있는 녹색 버튼, 축소하려면 빼기 표시가 있는 녹색 버튼, 다음 페이지의 지도를 보려면 녹색 화살표를 클릭하세요.


METAR-TAF: